sensor_id;sensor_type;location;lat;lon;timestamp;temperature;humidity
20728;DHT22;10525;50.154;8.198;2022-11-10T00:00:53;7.20;99.90
20728;DHT22;10525;50.154;8.198;2022-11-10T00:03:20;7.10;99.90
20728;DHT22;10525;50.154;8.198;2022-11-10T00:05:47;7.10;99.90
20728;DHT22;10525;50.154;8.198;2022-11-10T00:08:14;7.00;99.90
20728;DHT22;10525;50.154;8.198;2022-11-10T00:10:42;6.90;99.90
20728;DHT22;10525;50.154;8.198;2022-11-10T00:13:28;6.80;99.90
20728;DHT22;10525;50.154;8.198;2022-11-10T00:15:57;6.80;99.90
20728;DHT22;10525;50.154;8.198;2022-11-10T00:18:42;6.70;99.90
20728;DHT22;10525;50.154;8.198;2022-11-10T00:21:10;6.70;99.90
20728;DHT22;10525;50.154;8.198;2022-11-10T00:23:37;6.60;99.90
20728;DHT22;10525;50.154;8.198;2022-11-10T00:26:10;6.60;99.90
20728;DHT22;10525;50.154;8.198;2022-11-10T00:28:37;6.60;99.90
20728;DHT22;10525;50.154;8.198;2022-11-10T00:31:04;6.50;99.90
20728;DHT22;10525;50.154;8.198;2022-11-10T00:33:33;6.60;99.90
20728;DHT22;10525;50.154;8.198;2022-11-10T00:36:00;6.50;99.90
20728;DHT22;10525;50.154;8.198;2022-11-10T00:38:27;6.50;99.90
20728;DHT22;10525;50.154;8.198;2022-11-10T00:40:53;6.50;99.90
20728;DHT22;10525;50.154;8.198;2022-11-10T00:43:21;6.50;99.90
20728;DHT22;10525;50.154;8.198;2022-11-10T00:45:48;6.50;99.90
20728;DHT22;10525;50.154;8.198;2022-11-10T00:48:15;6.40;99.90
20728;DHT22;10525;50.154;8.198;2022-11-10T00:50:41;6.40;99.90
20728;DHT22;10525;50.154;8.198;2022-11-10T00:53:09;6.50;99.90
20728;DHT22;10525;50.154;8.198;2022-11-10T00:55:36;6.40;99.90
20728;DHT22;10525;50.154;8.198;2022-11-10T00:58:04;6.30;99.90
20728;DHT22;10525;50.154;8.198;2022-11-10T01:00:33;6.30;99.90
20728;DHT22;10525;50.154;8.198;2022-11-10T01:02:59;6.20;99.90
20728;DHT22;10525;50.154;8.198;2022-11-10T01:05:27;6.30;99.90
20728;DHT22;10525;50.154;8.198;2022-11-10T01:07:56;6.30;99.90
20728;DHT22;10525;50.154;8.198;2022-11-10T01:10:22;6.30;99.90
20728;DHT22;10525;50.154;8.198;2022-11-10T01:12:49;6.20;99.90
20728;DHT22;10525;50.154;8.198;2022-11-10T01:15:16;6.30;99.90
20728;DHT22;10525;50.154;8.198;2022-11-10T01:17:44;6.30;99.90
20728;DHT22;10525;50.154;8.198;2022-11-10T01:20:10;6.20;99.90
20728;DHT22;10525;50.154;8.198;2022-11-10T01:22:37;6.20;99.90
20728;DHT22;10525;50.154;8.198;2022-11-10T01:25:05;6.20;99.90
20728;DHT22;10525;50.154;8.198;2022-11-10T01:27:32;6.20;99.90
20728;DHT22;10525;50.154;8.198;2022-11-10T01:29:59;6.20;99.90
20728;DHT22;10525;50.154;8.198;2022-11-10T01:32:25;6.10;99.90
20728;DHT22;10525;50.154;8.198;2022-11-10T01:34:53;6.20;99.90
20728;DHT22;10525;50.154;8.198;2022-11-10T01:37:21;6.20;99.90
20728;DHT22;10525;50.154;8.198;2022-11-10T01:39:48;6.20;99.90
20728;DHT22;10525;50.154;8.198;2022-11-10T01:42:17;6.10;99.90
20728;DHT22;10525;50.154;8.198;2022-11-10T01:47:47;6.20;99.90
20728;DHT22;10525;50.154;8.198;2022-11-10T01:50:16;6.10;99.90
20728;DHT22;10525;50.154;8.198;2022-11-10T01:52:46;6.00;99.90
20728;DHT22;10525;50.154;8.198;2022-11-10T01:55:14;5.90;99.90
20728;DHT22;10525;50.154;8.198;2022-11-10T01:57:41;5.90;99.90
20728;DHT22;10525;50.154;8.198;2022-11-10T02:00:09;5.90;99.90
20728;DHT22;10525;50.154;8.198;2022-11-10T02:02:40;5.90;99.90
20728;DHT22;10525;50.154;8.198;2022-11-10T02:05:08;5.90;99.90
20728;DHT22;10525;50.154;8.198;2022-11-10T02:07:36;5.90;99.90
20728;DHT22;10525;50.154;8.198;2022-11-10T02:10:04;5.90;99.90
20728;DHT22;10525;50.154;8.198;2022-11-10T02:12:33;5.90;99.90
20728;DHT22;10525;50.154;8.198;2022-11-10T02:15:04;5.80;99.90
20728;DHT22;10525;50.154;8.198;2022-11-10T02:17:31;5.80;99.90
20728;DHT22;10525;50.154;8.198;2022-11-10T02:19:59;5.70;99.90
20728;DHT22;10525;50.154;8.198;2022-11-10T02:22:30;5.70;99.90
20728;DHT22;10525;50.154;8.198;2022-11-10T02:24:57;5.70;99.90
20728;DHT22;10525;50.154;8.198;2022-11-10T02:27:24;5.70;99.90
20728;DHT22;10525;50.154;8.198;2022-11-10T02:29:51;5.70;99.90
20728;DHT22;10525;50.154;8.198;2022-11-10T02:32:18;5.60;99.90
20728;DHT22;10525;50.154;8.198;2022-11-10T02:34:44;5.50;99.90
20728;DHT22;10525;50.154;8.198;2022-11-10T02:37:11;5.40;99.90
20728;DHT22;10525;50.154;8.198;2022-11-10T02:39:39;5.40;99.90
20728;DHT22;10525;50.154;8.198;2022-11-10T02:42:06;5.40;99.90
20728;DHT22;10525;50.154;8.198;2022-11-10T02:44:34;5.50;99.90
20728;DHT22;10525;50.154;8.198;2022-11-10T02:47:01;5.40;99.90
20728;DHT22;10525;50.154;8.198;2022-11-10T02:49:28;5.40;99.90
20728;DHT22;10525;50.154;8.198;2022-11-10T02:51:55;5.40;99.90
20728;DHT22;10525;50.154;8.198;2022-11-10T02:54:21;5.30;99.90
20728;DHT22;10525;50.154;8.198;2022-11-10T02:56:49;5.30;99.90
20728;DHT22;10525;50.154;8.198;2022-11-10T02:59:16;5.30;99.90
20728;DHT22;10525;50.154;8.198;2022-11-10T03:01:43;5.30;99.90
20728;DHT22;10525;50.154;8.198;2022-11-10T03:04:09;5.30;99.90
20728;DHT22;10525;50.154;8.198;2022-11-10T03:06:36;5.20;99.90
20728;DHT22;10525;50.154;8.198;2022-11-10T03:09:03;5.10;99.90
20728;DHT22;10525;50.154;8.198;2022-11-10T03:11:30;5.00;99.90
20728;DHT22;10525;50.154;8.198;2022-11-10T03:13:58;5.00;99.90
20728;DHT22;10525;50.154;8.198;2022-11-10T03:16:24;4.90;99.90
20728;DHT22;10525;50.154;8.198;2022-11-10T03:18:51;4.90;99.90
20728;DHT22;10525;50.154;8.198;2022-11-10T03:21:18;4.90;99.90
20728;DHT22;10525;50.154;8.198;2022-11-10T03:23:44;4.90;99.90
20728;DHT22;10525;50.154;8.198;2022-11-10T03:26:11;4.80;99.90
20728;DHT22;10525;50.154;8.198;2022-11-10T03:28:38;4.80;99.90
20728;DHT22;10525;50.154;8.198;2022-11-10T03:31:06;4.70;99.90
20728;DHT22;10525;50.154;8.198;2022-11-10T03:33:33;4.80;99.90
20728;DHT22;10525;50.154;8.198;2022-11-10T03:36:00;4.80;99.90
20728;DHT22;10525;50.154;8.198;2022-11-10T03:38:26;4.70;99.90
20728;DHT22;10525;50.154;8.198;2022-11-10T03:40:53;4.70;99.90
20728;DHT22;10525;50.154;8.198;2022-11-10T03:43:20;4.70;99.90
20728;DHT22;10525;50.154;8.198;2022-11-10T03:45:47;4.70;99.90
20728;DHT22;10525;50.154;8.198;2022-11-10T03:48:15;4.60;99.90
20728;DHT22;10525;50.154;8.198;2022-11-10T03:50:41;4.70;99.90
20728;DHT22;10525;50.154;8.198;2022-11-10T03:53:08;4.70;99.90
20728;DHT22;10525;50.154;8.198;2022-11-10T03:55:35;4.60;99.90
20728;DHT22;10525;50.154;8.198;2022-11-10T03:58:02;4.70;99.90
20728;DHT22;10525;50.154;8.198;2022-11-10T04:00:29;4.80;99.90
20728;DHT22;10525;50.154;8.198;2022-11-10T04:02:56;4.90;99.90
20728;DHT22;10525;50.154;8.198;2022-11-10T04:05:24;4.90;99.90
20728;DHT22;10525;50.154;8.198;2022-11-10T04:08:12;4.90;99.90
20728;DHT22;10525;50.154;8.198;2022-11-10T04:10:56;5.00;99.90
20728;DHT22;10525;50.154;8.198;2022-11-10T04:13:23;4.90;99.90
20728;DHT22;10525;50.154;8.198;2022-11-10T04:16:07;4.80;99.90
20728;DHT22;10525;50.154;8.198;2022-11-10T04:18:34;4.80;99.90
20728;DHT22;10525;50.154;8.198;2022-11-10T04:21:03;4.80;99.90
20728;DHT22;10525;50.154;8.198;2022-11-10T04:23:31;4.80;99.90
20728;DHT22;10525;50.154;8.198;2022-11-10T04:26:02;4.70;99.90
20728;DHT22;10525;50.154;8.198;2022-11-10T04:28:48;4.70;99.90
20728;DHT22;10525;50.154;8.198;2022-11-10T04:31:15;4.70;99.90
20728;DHT22;10525;50.154;8.198;2022-11-10T04:33:43;4.80;99.90
20728;DHT22;10525;50.154;8.198;2022-11-10T04:36:13;4.90;99.90
20728;DHT22;10525;50.154;8.198;2022-11-10T04:38:40;5.00;99.90
20728;DHT22;10525;50.154;8.198;2022-11-10T04:41:07;5.00;99.90
20728;DHT22;10525;50.154;8.198;2022-11-10T04:43:34;5.00;99.90
20728;DHT22;10525;50.154;8.198;2022-11-10T04:46:02;4.90;99.90
20728;DHT22;10525;50.154;8.198;2022-11-10T04:48:29;4.90;99.90
20728;DHT22;10525;50.154;8.198;2022-11-10T04:50:56;4.90;99.90
20728;DHT22;10525;50.154;8.198;2022-11-10T04:53:25;4.90;99.90
20728;DHT22;10525;50.154;8.198;2022-11-10T04:55:52;5.00;99.90
20728;DHT22;10525;50.154;8.198;2022-11-10T04:58:19;4.90;99.90
20728;DHT22;10525;50.154;8.198;2022-11-10T05:00:46;4.90;99.90
20728;DHT22;10525;50.154;8.198;2022-11-10T05:03:13;4.90;99.90
20728;DHT22;10525;50.154;8.198;2022-11-10T05:05:40;4.80;99.90
20728;DHT22;10525;50.154;8.198;2022-11-10T05:08:07;4.80;99.90
20728;DHT22;10525;50.154;8.198;2022-11-10T05:10:36;4.80;99.90
20728;DHT22;10525;50.154;8.198;2022-11-10T05:13:03;4.70;99.90
20728;DHT22;10525;50.154;8.198;2022-11-10T05:15:31;4.70;99.90
20728;DHT22;10525;50.154;8.198;2022-11-10T05:17:58;4.60;99.90
20728;DHT22;10525;50.154;8.198;2022-11-10T05:20:25;4.60;99.90
20728;DHT22;10525;50.154;8.198;2022-11-10T05:22:52;4.60;99.90
20728;DHT22;10525;50.154;8.198;2022-11-10T05:25:39;4.60;99.90
20728;DHT22;10525;50.154;8.198;2022-11-10T05:28:08;4.70;99.90
20728;DHT22;10525;50.154;8.198;2022-11-10T05:30:35;4.60;99.90
20728;DHT22;10525;50.154;8.198;2022-11-10T05:33:02;4.70;99.90
20728;DHT22;10525;50.154;8.198;2022-11-10T05:35:28;4.70;99.90
20728;DHT22;10525;50.154;8.198;2022-11-10T05:37:55;4.70;99.90
20728;DHT22;10525;50.154;8.198;2022-11-10T05:40:22;4.60;99.90
20728;DHT22;10525;50.154;8.198;2022-11-10T05:42:51;4.80;99.90
20728;DHT22;10525;50.154;8.198;2022-11-10T05:45:19;4.80;99.90
20728;DHT22;10525;50.154;8.198;2022-11-10T05:47:46;4.90;99.90
20728;DHT22;10525;50.154;8.198;2022-11-10T05:50:13;4.90;99.90
20728;DHT22;10525;50.154;8.198;2022-11-10T05:52:42;4.80;99.90
20728;DHT22;10525;50.154;8.198;2022-11-10T05:55:10;4.60;99.90
20728;DHT22;10525;50.154;8.198;2022-11-10T05:57:36;4.50;99.90
20728;DHT22;10525;50.154;8.198;2022-11-10T06:00:06;4.40;99.90
20728;DHT22;10525;50.154;8.198;2022-11-10T06:02:33;4.40;99.90
20728;DHT22;10525;50.154;8.198;2022-11-10T06:05:00;4.30;99.90
20728;DHT22;10525;50.154;8.198;2022-11-10T06:07:27;4.30;99.90
20728;DHT22;10525;50.154;8.198;2022-11-10T06:09:53;4.20;99.90
20728;DHT22;10525;50.154;8.198;2022-11-10T06:12:20;4.20;99.90
20728;DHT22;10525;50.154;8.198;2022-11-10T06:14:49;4.20;99.90
20728;DHT22;10525;50.154;8.198;2022-11-10T06:17:17;4.20;99.90
20728;DHT22;10525;50.154;8.198;2022-11-10T06:19:44;4.20;99.90
20728;DHT22;10525;50.154;8.198;2022-11-10T06:22:11;4.20;99.90
20728;DHT22;10525;50.154;8.198;2022-11-10T06:24:38;4.30;99.90
20728;DHT22;10525;50.154;8.198;2022-11-10T06:27:05;4.30;99.90
20728;DHT22;10525;50.154;8.198;2022-11-10T06:29:31;4.30;99.90
20728;DHT22;10525;50.154;8.198;2022-11-10T06:31:58;4.50;99.90
20728;DHT22;10525;50.154;8.198;2022-11-10T06:34:26;4.50;99.90
20728;DHT22;10525;50.154;8.198;2022-11-10T06:36:53;4.50;99.90
20728;DHT22;10525;50.154;8.198;2022-11-10T06:39:19;4.50;99.90
20728;DHT22;10525;50.154;8.198;2022-11-10T06:41:46;4.40;99.90
20728;DHT22;10525;50.154;8.198;2022-11-10T06:44:13;4.30;99.90
20728;DHT22;10525;50.154;8.198;2022-11-10T06:46:39;4.40;99.90
20728;DHT22;10525;50.154;8.198;2022-11-10T06:49:06;4.40;99.90
20728;DHT22;10525;50.154;8.198;2022-11-10T06:51:34;4.40;99.90
20728;DHT22;10525;50.154;8.198;2022-11-10T06:54:01;4.40;99.90
20728;DHT22;10525;50.154;8.198;2022-11-10T06:56:28;4.40;99.90
20728;DHT22;10525;50.154;8.198;2022-11-10T06:58:54;4.40;99.90
20728;DHT22;10525;50.154;8.198;2022-11-10T07:01:21;4.50;99.90
20728;DHT22;10525;50.154;8.198;2022-11-10T07:03:50;4.70;99.90
20728;DHT22;10525;50.154;8.198;2022-11-10T07:06:17;4.70;99.90
20728;DHT22;10525;50.154;8.198;2022-11-10T07:08:45;4.90;99.90
20728;DHT22;10525;50.154;8.198;2022-11-10T07:11:12;5.20;99.90
20728;DHT22;10525;50.154;8.198;2022-11-10T07:13:39;5.40;99.90
20728;DHT22;10525;50.154;8.198;2022-11-10T07:16:06;5.70;99.90
20728;DHT22;10525;50.154;8.198;2022-11-10T07:18:33;5.90;99.90
20728;DHT22;10525;50.154;8.198;2022-11-10T07:21:01;6.00;99.90
20728;DHT22;10525;50.154;8.198;2022-11-10T07:23:29;6.10;99.90
20728;DHT22;10525;50.154;8.198;2022-11-10T07:25:57;6.30;99.90
20728;DHT22;10525;50.154;8.198;2022-11-10T07:28:24;6.30;99.90
20728;DHT22;10525;50.154;8.198;2022-11-10T07:30:51;6.40;99.90
20728;DHT22;10525;50.154;8.198;2022-11-10T07:33:18;6.60;99.90
20728;DHT22;10525;50.154;8.198;2022-11-10T07:35:51;6.80;99.90
20728;DHT22;10525;50.154;8.198;2022-11-10T07:38:18;7.00;99.90
20728;DHT22;10525;50.154;8.198;2022-11-10T07:40:45;7.00;99.90
20728;DHT22;10525;50.154;8.198;2022-11-10T07:43:13;7.00;99.90
20728;DHT22;10525;50.154;8.198;2022-11-10T07:45:40;7.10;99.90
20728;DHT22;10525;50.154;8.198;2022-11-10T07:48:07;7.00;99.90
20728;DHT22;10525;50.154;8.198;2022-11-10T07:50:34;7.10;99.90
20728;DHT22;10525;50.154;8.198;2022-11-10T07:53:02;7.10;99.90
20728;DHT22;10525;50.154;8.198;2022-11-10T07:55:29;7.10;99.90
20728;DHT22;10525;50.154;8.198;2022-11-10T07:57:56;7.10;99.90
20728;DHT22;10525;50.154;8.198;2022-11-10T08:00:24;7.10;99.90
20728;DHT22;10525;50.154;8.198;2022-11-10T08:02:51;7.20;99.90
20728;DHT22;10525;50.154;8.198;2022-11-10T08:05:18;7.30;99.90
20728;DHT22;10525;50.154;8.198;2022-11-10T08:07:45;7.40;99.90
20728;DHT22;10525;50.154;8.198;2022-11-10T08:10:11;7.40;99.90
20728;DHT22;10525;50.154;8.198;2022-11-10T08:12:38;7.50;99.90
20728;DHT22;10525;50.154;8.198;2022-11-10T08:15:05;7.50;99.90
20728;DHT22;10525;50.154;8.198;2022-11-10T08:17:34;7.60;99.90
20728;DHT22;10525;50.154;8.198;2022-11-10T08:20:00;7.70;99.90
20728;DHT22;10525;50.154;8.198;2022-11-10T08:22:29;7.80;99.90
20728;DHT22;10525;50.154;8.198;2022-11-10T08:24:56;7.80;99.90
20728;DHT22;10525;50.154;8.198;2022-11-10T08:27:23;7.80;99.90
20728;DHT22;10525;50.154;8.198;2022-11-10T08:29:50;7.90;99.90
20728;DHT22;10525;50.154;8.198;2022-11-10T08:32:16;8.00;99.90
20728;DHT22;10525;50.154;8.198;2022-11-10T08:34:45;8.00;99.90
20728;DHT22;10525;50.154;8.198;2022-11-10T08:37:12;8.00;99.90
20728;DHT22;10525;50.154;8.198;2022-11-10T08:39:38;8.10;99.90
20728;DHT22;10525;50.154;8.198;2022-11-10T08:42:05;8.10;99.90
20728;DHT22;10525;50.154;8.198;2022-11-10T08:44:32;8.20;99.90
20728;DHT22;10525;50.154;8.198;2022-11-10T08:46:59;8.20;99.90
20728;DHT22;10525;50.154;8.198;2022-11-10T08:49:25;8.20;99.90
20728;DHT22;10525;50.154;8.198;2022-11-10T08:51:53;8.30;99.90
20728;DHT22;10525;50.154;8.198;2022-11-10T08:54:20;8.40;99.90
20728;DHT22;10525;50.154;8.198;2022-11-10T08:56:47;8.50;99.90
20728;DHT22;10525;50.154;8.198;2022-11-10T08:59:13;8.60;99.90
20728;DHT22;10525;50.154;8.198;2022-11-10T09:01:40;8.60;99.90
20728;DHT22;10525;50.154;8.198;2022-11-10T09:04:07;8.70;99.90
20728;DHT22;10525;50.154;8.198;2022-11-10T09:06:33;8.80;99.90
20728;DHT22;10525;50.154;8.198;2022-11-10T09:09:01;8.80;99.90
20728;DHT22;10525;50.154;8.198;2022-11-10T09:11:29;8.90;99.90
20728;DHT22;10525;50.154;8.198;2022-11-10T09:13:56;9.00;99.90
20728;DHT22;10525;50.154;8.198;2022-11-10T09:16:22;9.10;99.90
20728;DHT22;10525;50.154;8.198;2022-11-10T09:18:49;9.20;99.90
20728;DHT22;10525;50.154;8.198;2022-11-10T09:21:16;9.20;99.90
20728;DHT22;10525;50.154;8.198;2022-11-10T09:23:42;9.30;99.90
20728;DHT22;10525;50.154;8.198;2022-11-10T09:26:10;9.40;99.90
20728;DHT22;10525;50.154;8.198;2022-11-10T09:28:37;9.50;99.90
20728;DHT22;10525;50.154;8.198;2022-11-10T09:31:04;9.50;99.90
20728;DHT22;10525;50.154;8.198;2022-11-10T09:33:30;9.70;99.90
20728;DHT22;10525;50.154;8.198;2022-11-10T09:35:57;9.70;99.90
20728;DHT22;10525;50.154;8.198;2022-11-10T09:38:24;9.80;99.90
20728;DHT22;10525;50.154;8.198;2022-11-10T09:40:58;9.90;99.90
20728;DHT22;10525;50.154;8.198;2022-11-10T09:43:32;10.00;99.90
20728;DHT22;10525;50.154;8.198;2022-11-10T09:46:08;10.10;99.90
20728;DHT22;10525;50.154;8.198;2022-11-10T09:48:40;10.10;99.90
20728;DHT22;10525;50.154;8.198;2022-11-10T09:51:12;10.10;99.90
20728;DHT22;10525;50.154;8.198;2022-11-10T09:53:46;10.20;99.90
20728;DHT22;10525;50.154;8.198;2022-11-10T09:56:18;10.20;99.90
20728;DHT22;10525;50.154;8.198;2022-11-10T09:58:47;10.40;99.90
20728;DHT22;10525;50.154;8.198;2022-11-10T10:01:24;10.40;99.90
20728;DHT22;10525;50.154;8.198;2022-11-10T10:04:02;10.30;99.90
20728;DHT22;10525;50.154;8.198;2022-11-10T10:06:33;10.10;99.90
20728;DHT22;10525;50.154;8.198;2022-11-10T10:09:09;10.10;99.90
20728;DHT22;10525;50.154;8.198;2022-11-10T10:11:48;10.10;99.90
20728;DHT22;10525;50.154;8.198;2022-11-10T10:14:39;10.10;99.90
20728;DHT22;10525;50.154;8.198;2022-11-10T10:17:18;10.10;99.90
20728;DHT22;10525;50.154;8.198;2022-11-10T10:19:49;10.20;99.90
20728;DHT22;10525;50.154;8.198;2022-11-10T10:22:42;10.20;99.90
20728;DHT22;10525;50.154;8.198;2022-11-10T10:25:15;10.30;99.90
20728;DHT22;10525;50.154;8.198;2022-11-10T10:27:47;10.50;99.90
20728;DHT22;10525;50.154;8.198;2022-11-10T10:30:18;10.70;99.90
20728;DHT22;10525;50.154;8.198;2022-11-10T10:32:45;10.80;99.90
20728;DHT22;10525;50.154;8.198;2022-11-10T10:35:13;11.00;99.90
20728;DHT22;10525;50.154;8.198;2022-11-10T10:37:43;11.10;99.90
20728;DHT22;10525;50.154;8.198;2022-11-10T10:40:16;11.10;99.90
20728;DHT22;10525;50.154;8.198;2022-11-10T10:42:43;11.30;99.90
20728;DHT22;10525;50.154;8.198;2022-11-10T10:45:29;11.30;99.90
20728;DHT22;10525;50.154;8.198;2022-11-10T10:47:57;11.40;99.90
20728;DHT22;10525;50.154;8.198;2022-11-10T10:50:28;11.50;99.90
20728;DHT22;10525;50.154;8.198;2022-11-10T10:53:09;11.60;99.90
20728;DHT22;10525;50.154;8.198;2022-11-10T10:55:38;11.70;99.90
20728;DHT22;10525;50.154;8.198;2022-11-10T10:58:18;11.70;99.90
20728;DHT22;10525;50.154;8.198;2022-11-10T11:00:49;11.80;99.90
20728;DHT22;10525;50.154;8.198;2022-11-10T11:03:25;11.70;99.90
20728;DHT22;10525;50.154;8.198;2022-11-10T11:06:00;11.80;99.90
20728;DHT22;10525;50.154;8.198;2022-11-10T11:08:27;11.80;99.90
20728;DHT22;10525;50.154;8.198;2022-11-10T11:10:54;11.90;99.90
20728;DHT22;10525;50.154;8.198;2022-11-10T11:13:22;12.00;99.90
20728;DHT22;10525;50.154;8.198;2022-11-10T11:15:57;12.00;99.90
20728;DHT22;10525;50.154;8.198;2022-11-10T11:18:26;12.10;99.90
20728;DHT22;10525;50.154;8.198;2022-11-10T11:20:59;12.10;99.90
20728;DHT22;10525;50.154;8.198;2022-11-10T11:23:44;12.10;99.90
20728;DHT22;10525;50.154;8.198;2022-11-10T11:26:18;12.10;99.90
20728;DHT22;10525;50.154;8.198;2022-11-10T11:28:53;12.10;99.90
20728;DHT22;10525;50.154;8.198;2022-11-10T11:31:30;12.30;99.90
20728;DHT22;10525;50.154;8.198;2022-11-10T11:34:00;12.20;99.90
20728;DHT22;10525;50.154;8.198;2022-11-10T11:36:39;12.20;99.90
20728;DHT22;10525;50.154;8.198;2022-11-10T11:39:19;12.30;99.90
20728;DHT22;10525;50.154;8.198;2022-11-10T11:41:55;12.20;99.90
20728;DHT22;10525;50.154;8.198;2022-11-10T11:44:36;12.30;99.90
20728;DHT22;10525;50.154;8.198;2022-11-10T11:47:21;12.20;99.90
20728;DHT22;10525;50.154;8.198;2022-11-10T11:50:02;12.20;99.90
20728;DHT22;10525;50.154;8.198;2022-11-10T11:52:33;12.20;99.90
20728;DHT22;10525;50.154;8.198;2022-11-10T11:55:14;12.10;99.90
20728;DHT22;10525;50.154;8.198;2022-11-10T11:57:51;12.10;99.90
20728;DHT22;10525;50.154;8.198;2022-11-10T12:00:19;12.10;99.90
20728;DHT22;10525;50.154;8.198;2022-11-10T12:03:19;12.10;99.90
20728;DHT22;10525;50.154;8.198;2022-11-10T12:05:55;12.20;99.90
20728;DHT22;10525;50.154;8.198;2022-11-10T12:08:31;12.30;99.90
20728;DHT22;10525;50.154;8.198;2022-11-10T12:11:11;12.40;99.90
20728;DHT22;10525;50.154;8.198;2022-11-10T12:13:47;12.50;99.90
20728;DHT22;10525;50.154;8.198;2022-11-10T12:16:19;12.50;99.90
20728;DHT22;10525;50.154;8.198;2022-11-10T12:18:55;12.40;99.90
20728;DHT22;10525;50.154;8.198;2022-11-10T12:21:28;12.30;99.90
20728;DHT22;10525;50.154;8.198;2022-11-10T12:24:10;12.20;99.90
20728;DHT22;10525;50.154;8.198;2022-11-10T12:26:43;12.20;99.90
20728;DHT22;10525;50.154;8.198;2022-11-10T12:29:21;12.10;99.90
20728;DHT22;10525;50.154;8.198;2022-11-10T12:31:53;12.00;99.90
20728;DHT22;10525;50.154;8.198;2022-11-10T12:34:29;11.90;99.90
20728;DHT22;10525;50.154;8.198;2022-11-10T12:37:00;11.90;99.90
20728;DHT22;10525;50.154;8.198;2022-11-10T12:39:40;11.80;99.90
20728;DHT22;10525;50.154;8.198;2022-11-10T12:42:13;11.70;99.90
20728;DHT22;10525;50.154;8.198;2022-11-10T12:44:53;11.60;99.90
20728;DHT22;10525;50.154;8.198;2022-11-10T12:47:24;11.70;99.90
20728;DHT22;10525;50.154;8.198;2022-11-10T12:49:57;11.80;99.90
20728;DHT22;10525;50.154;8.198;2022-11-10T12:52:30;11.80;99.90
20728;DHT22;10525;50.154;8.198;2022-11-10T12:55:00;11.80;99.90
20728;DHT22;10525;50.154;8.198;2022-11-10T12:57:28;11.90;99.90
20728;DHT22;10525;50.154;8.198;2022-11-10T12:59:58;11.90;99.90
20728;DHT22;10525;50.154;8.198;2022-11-10T13:02:30;12.00;99.90
20728;DHT22;10525;50.154;8.198;2022-11-10T13:05:26;12.00;99.90
20728;DHT22;10525;50.154;8.198;2022-11-10T13:08:07;12.10;99.90
20728;DHT22;10525;50.154;8.198;2022-11-10T13:10:47;12.10;99.90
20728;DHT22;10525;50.154;8.198;2022-11-10T13:13:14;12.10;99.90
20728;DHT22;10525;50.154;8.198;2022-11-10T13:15:50;12.10;99.90
20728;DHT22;10525;50.154;8.198;2022-11-10T13:22:03;12.10;99.90
20728;DHT22;10525;50.154;8.198;2022-11-10T13:24:32;12.20;99.90
20728;DHT22;10525;50.154;8.198;2022-11-10T13:26:59;12.20;99.90
20728;DHT22;10525;50.154;8.198;2022-11-10T13:29:32;12.20;99.90
20728;DHT22;10525;50.154;8.198;2022-11-10T13:32:32;12.20;99.90
20728;DHT22;10525;50.154;8.198;2022-11-10T13:37:57;12.30;99.90
20728;DHT22;10525;50.154;8.198;2022-11-10T13:40:35;12.20;99.90
20728;DHT22;10525;50.154;8.198;2022-11-10T13:43:25;12.20;99.90
20728;DHT22;10525;50.154;8.198;2022-11-10T13:46:00;12.20;99.90
20728;DHT22;10525;50.154;8.198;2022-11-10T13:48:40;12.10;99.90
20728;DHT22;10525;50.154;8.198;2022-11-10T13:51:19;12.10;99.90
20728;DHT22;10525;50.154;8.198;2022-11-10T13:53:58;12.10;99.90
20728;DHT22;10525;50.154;8.198;2022-11-10T13:56:45;12.00;99.90
20728;DHT22;10525;50.154;8.198;2022-11-10T13:59:17;12.00;99.90
20728;DHT22;10525;50.154;8.198;2022-11-10T14:01:45;12.00;99.90
20728;DHT22;10525;50.154;8.198;2022-11-10T14:04:37;12.00;99.90
20728;DHT22;10525;50.154;8.198;2022-11-10T14:07:12;12.00;99.90
20728;DHT22;10525;50.154;8.198;2022-11-10T14:09:44;11.90;99.90
20728;DHT22;10525;50.154;8.198;2022-11-10T14:12:22;11.80;99.90
20728;DHT22;10525;50.154;8.198;2022-11-10T14:14:53;11.80;99.90
20728;DHT22;10525;50.154;8.198;2022-11-10T14:17:25;11.70;99.90
20728;DHT22;10525;50.154;8.198;2022-11-10T14:19:53;11.70;99.90
20728;DHT22;10525;50.154;8.198;2022-11-10T14:22:23;11.70;99.90
20728;DHT22;10525;50.154;8.198;2022-11-10T14:24:58;11.70;99.90
20728;DHT22;10525;50.154;8.198;2022-11-10T14:27:27;11.60;99.90
20728;DHT22;10525;50.154;8.198;2022-11-10T14:30:21;11.60;99.90
20728;DHT22;10525;50.154;8.198;2022-11-10T14:32:59;11.60;99.90
20728;DHT22;10525;50.154;8.198;2022-11-10T14:35:30;11.60;99.90
20728;DHT22;10525;50.154;8.198;2022-11-10T14:37:58;11.50;99.90
20728;DHT22;10525;50.154;8.198;2022-11-10T14:40:27;11.50;99.90
20728;DHT22;10525;50.154;8.198;2022-11-10T14:42:55;11.50;99.90
20728;DHT22;10525;50.154;8.198;2022-11-10T14:45:23;11.40;99.90
20728;DHT22;10525;50.154;8.198;2022-11-10T14:47:51;11.40;99.90
20728;DHT22;10525;50.154;8.198;2022-11-10T14:50:22;11.40;99.90
20728;DHT22;10525;50.154;8.198;2022-11-10T14:52:52;11.30;99.90
20728;DHT22;10525;50.154;8.198;2022-11-10T14:55:21;11.30;99.90
20728;DHT22;10525;50.154;8.198;2022-11-10T14:57:51;11.20;99.90
20728;DHT22;10525;50.154;8.198;2022-11-10T15:00:22;11.10;99.90
20728;DHT22;10525;50.154;8.198;2022-11-10T15:02:51;11.00;99.90
20728;DHT22;10525;50.154;8.198;2022-11-10T15:05:18;10.90;99.90
20728;DHT22;10525;50.154;8.198;2022-11-10T15:07:45;10.80;99.90
20728;DHT22;10525;50.154;8.198;2022-11-10T15:10:16;10.80;99.90
20728;DHT22;10525;50.154;8.198;2022-11-10T15:12:43;10.70;99.90
20728;DHT22;10525;50.154;8.198;2022-11-10T15:15:22;10.70;99.90
20728;DHT22;10525;50.154;8.198;2022-11-10T15:17:50;10.50;99.90
20728;DHT22;10525;50.154;8.198;2022-11-10T15:20:34;10.50;99.90
20728;DHT22;10525;50.154;8.198;2022-11-10T15:23:04;10.40;99.90
20728;DHT22;10525;50.154;8.198;2022-11-10T15:25:34;10.30;99.90
20728;DHT22;10525;50.154;8.198;2022-11-10T15:28:05;10.30;99.90
20728;DHT22;10525;50.154;8.198;2022-11-10T15:30:34;10.20;99.90
20728;DHT22;10525;50.154;8.198;2022-11-10T15:33:07;10.10;99.90
20728;DHT22;10525;50.154;8.198;2022-11-10T15:35:34;10.00;99.90
20728;DHT22;10525;50.154;8.198;2022-11-10T15:38:04;10.00;99.90
20728;DHT22;10525;50.154;8.198;2022-11-10T15:40:34;9.90;99.90
20728;DHT22;10525;50.154;8.198;2022-11-10T15:43:13;9.80;99.90
20728;DHT22;10525;50.154;8.198;2022-11-10T15:45:42;9.80;99.90
20728;DHT22;10525;50.154;8.198;2022-11-10T15:48:12;9.70;99.90
20728;DHT22;10525;50.154;8.198;2022-11-10T15:50:40;9.70;99.90
20728;DHT22;10525;50.154;8.198;2022-11-10T15:53:11;9.70;99.90
20728;DHT22;10525;50.154;8.198;2022-11-10T15:55:40;9.70;99.90
20728;DHT22;10525;50.154;8.198;2022-11-10T15:58:14;9.60;99.90
20728;DHT22;10525;50.154;8.198;2022-11-10T16:00:44;9.70;99.90
20728;DHT22;10525;50.154;8.198;2022-11-10T16:03:12;9.60;99.90
20728;DHT22;10525;50.154;8.198;2022-11-10T16:05:39;9.50;99.90
20728;DHT22;10525;50.154;8.198;2022-11-10T16:08:11;9.40;99.90